createdAt,value
2023-01-12T00:02:14.845Z,101521.53
2023-01-12T00:04:42.244Z,101530.94
2023-01-12T00:07:10.787Z,101545.09
2023-01-12T00:09:38.267Z,101532.72
2023-01-12T00:12:07.148Z,101533.34
2023-01-12T00:14:34.838Z,101531.69
2023-01-12T00:17:02.903Z,101525.78
2023-01-12T00:19:31.830Z,101529.34
2023-01-12T00:22:01.960Z,101529.88
2023-01-12T00:24:29.805Z,101536.41
2023-01-12T00:26:58.756Z,101535.81
2023-01-12T00:29:26.463Z,101541.75
2023-01-12T00:31:54.612Z,101540.47
2023-01-12T00:34:22.471Z,101531.72
2023-01-12T00:36:50.779Z,101532.88
2023-01-12T00:39:18.979Z,101532.22
2023-01-12T00:42:04.925Z,101536.16
2023-01-12T00:45:07.429Z,101547.22
2023-01-12T00:47:35.723Z,101549.34
2023-01-12T00:50:03.635Z,101551.41
2023-01-12T00:52:31.853Z,101539.69
2023-01-12T00:54:59.708Z,101542.22
2023-01-12T00:57:28.348Z,101538.34
2023-01-12T00:59:58.126Z,101531.88
2023-01-12T01:02:26.304Z,101530.31
2023-01-12T01:04:53.752Z,101527.25
2023-01-12T01:07:21.896Z,101530.00
2023-01-12T01:09:49.808Z,101534.88
2023-01-12T01:12:17.436Z,101532.44
2023-01-12T01:14:44.874Z,101519.09
2023-01-12T01:17:12.543Z,101527.25
2023-01-12T01:19:40.090Z,101523.16
2023-01-12T01:22:07.483Z,101524.72
2023-01-12T01:24:34.765Z,101525.09
2023-01-12T01:27:02.618Z,101533.19
2023-01-12T01:29:30.428Z,101527.56
2023-01-12T01:31:58.188Z,101527.09
2023-01-12T01:34:25.651Z,101534.31
2023-01-12T01:36:53.418Z,101530.59
2023-01-12T01:39:21.133Z,101535.16
2023-01-12T01:41:48.633Z,101546.50
2023-01-12T01:44:31.794Z,101553.19
2023-01-12T01:47:00.839Z,101552.03
2023-01-12T01:49:28.255Z,101549.13
2023-01-12T01:52:07.611Z,101544.16
2023-01-12T01:54:37.681Z,101546.94
2023-01-12T01:57:06.201Z,101540.72
2023-01-12T01:59:35.270Z,101543.50
2023-01-12T02:02:03.340Z,101553.94
2023-01-12T02:04:31.516Z,101555.94
2023-01-12T02:07:00.480Z,101548.88
2023-01-12T02:09:29.268Z,101541.00
2023-01-12T02:12:16.122Z,101552.38
2023-01-12T02:15:04.191Z,101555.34
2023-01-12T02:17:38.499Z,101551.72
2023-01-12T02:20:24.250Z,101549.91
2023-01-12T02:23:00.649Z,101550.72
2023-01-12T02:25:28.419Z,101543.97
2023-01-12T02:27:55.822Z,101546.41
2023-01-12T02:30:39.153Z,101537.50
2023-01-12T02:33:09.548Z,101529.41
2023-01-12T02:35:52.868Z,101531.47
2023-01-12T02:38:34.218Z,101528.03
2023-01-12T02:41:41.249Z,101518.97
2023-01-12T02:44:12.249Z,101511.50
2023-01-12T02:46:41.435Z,101511.81
2023-01-12T02:49:10.512Z,101520.72
2023-01-12T02:51:40.842Z,101538.09
2023-01-12T02:54:13.292Z,101536.28
2023-01-12T02:56:43.450Z,101532.50
2023-01-12T02:59:26.221Z,101527.72
2023-01-12T03:01:57.361Z,101527.59
2023-01-12T03:04:25.973Z,101523.00
2023-01-12T03:06:56.640Z,101525.56
2023-01-12T03:09:44.195Z,101527.16
2023-01-12T03:12:18.060Z,101525.06
2023-01-12T03:14:48.129Z,101528.44
2023-01-12T03:17:27.078Z,101534.28
2023-01-12T03:19:56.848Z,101538.88
2023-01-12T03:22:24.602Z,101543.31
2023-01-12T03:24:56.509Z,101536.22
2023-01-12T03:27:38.156Z,101531.41
2023-01-12T03:30:13.155Z,101525.13
2023-01-12T03:32:40.724Z,101530.34
2023-01-12T03:35:09.369Z,101538.19
2023-01-12T03:37:40.415Z,101534.88
2023-01-12T03:40:23.663Z,101535.16
2023-01-12T03:42:55.131Z,101526.50
2023-01-12T03:45:31.789Z,101523.91
2023-01-12T03:48:07.669Z,101530.09
2023-01-12T03:50:39.512Z,101526.66
2023-01-12T03:53:09.099Z,101525.50
2023-01-12T03:55:38.345Z,101519.63
2023-01-12T03:58:05.856Z,101522.81
2023-01-12T04:00:33.378Z,101529.81
2023-01-12T04:03:20.245Z,101522.13
2023-01-12T04:05:48.099Z,101528.16
2023-01-12T04:08:16.198Z,101524.06
2023-01-12T04:10:43.683Z,101536.91
2023-01-12T04:13:11.097Z,101544.09
2023-01-12T04:15:42.534Z,101543.56
2023-01-12T04:18:10.778Z,101544.59
2023-01-12T04:20:38.861Z,101554.25
2023-01-12T04:23:07.217Z,101552.44
2023-01-12T04:25:35.018Z,101556.03
2023-01-12T04:28:03.620Z,101559.91
2023-01-12T04:30:32.153Z,101566.00
2023-01-12T04:33:00.203Z,101572.06
2023-01-12T04:35:27.836Z,101576.97
2023-01-12T04:37:56.591Z,101590.50
2023-01-12T04:40:25.055Z,101591.03
2023-01-12T04:43:01.825Z,101597.47
2023-01-12T04:45:30.524Z,101594.88
2023-01-12T04:48:04.657Z,101606.50
2023-01-12T04:50:32.901Z,101609.59
2023-01-12T04:53:03.861Z,101618.66
2023-01-12T04:55:31.737Z,101625.66
2023-01-12T04:57:59.102Z,101637.63
2023-01-12T05:00:26.663Z,101640.97
2023-01-12T05:02:59.494Z,101651.06
2023-01-12T05:05:27.727Z,101657.41
2023-01-12T05:08:14.662Z,101647.28
2023-01-12T05:10:44.346Z,101648.16
2023-01-12T05:13:12.647Z,101630.59
2023-01-12T05:15:40.508Z,101619.31
2023-01-12T05:18:08.362Z,101610.94
2023-01-12T05:20:35.962Z,101608.88
2023-01-12T05:23:03.548Z,101598.63
2023-01-12T05:25:33.015Z,101588.00
2023-01-12T05:28:00.549Z,101596.72
2023-01-12T05:30:31.433Z,101595.53
2023-01-12T05:32:59.528Z,101603.53
2023-01-12T05:35:27.174Z,101617.28
2023-01-12T05:37:55.500Z,101599.94
2023-01-12T05:40:22.990Z,101597.44
2023-01-12T05:43:09.772Z,101602.84
2023-01-12T05:45:37.623Z,101596.63
2023-01-12T05:48:05.245Z,101603.50
2023-01-12T05:50:32.756Z,101607.75
2023-01-12T05:53:10.666Z,101614.81
2023-01-12T05:55:38.148Z,101621.78
2023-01-12T05:58:05.710Z,101636.50
2023-01-12T06:00:33.586Z,101632.16
2023-01-12T06:03:02.905Z,101647.13
2023-01-12T06:05:30.703Z,101646.44
2023-01-12T06:07:58.233Z,101654.19
2023-01-12T06:10:25.744Z,101648.16
2023-01-12T06:13:12.298Z,101649.16
2023-01-12T06:15:40.001Z,101659.50
2023-01-12T06:18:07.567Z,101658.50
2023-01-12T06:20:35.041Z,101654.09
2023-01-12T06:23:03.401Z,101655.91
2023-01-12T06:25:31.962Z,101661.19
2023-01-12T06:27:59.394Z,101667.28
2023-01-12T06:30:27.244Z,101665.19
2023-01-12T06:32:54.578Z,101677.66
2023-01-12T06:35:22.444Z,101682.13
2023-01-12T06:37:49.746Z,101668.72
2023-01-12T06:40:17.057Z,101669.16
2023-01-12T06:42:44.463Z,101674.09
2023-01-12T06:45:12.466Z,101691.13
2023-01-12T06:47:46.819Z,101711.91
2023-01-12T06:50:14.251Z,101713.56
2023-01-12T06:52:42.624Z,101712.69
2023-01-12T06:55:10.527Z,101703.41
2023-01-12T06:57:38.078Z,101697.69
2023-01-12T07:00:06.350Z,101701.38
2023-01-12T07:02:33.835Z,101717.78
2023-01-12T07:05:01.131Z,101731.72
2023-01-12T07:07:28.459Z,101732.78
2023-01-12T07:09:55.857Z,101735.09
2023-01-12T07:12:23.169Z,101735.63
2023-01-12T07:14:50.938Z,101719.69
2023-01-12T07:17:18.302Z,101711.22
2023-01-12T07:19:45.672Z,101709.03
2023-01-12T07:22:13.106Z,101707.66
2023-01-12T07:24:40.413Z,101710.59
2023-01-12T07:27:08.472Z,101716.97
2023-01-12T07:29:35.889Z,101704.91
2023-01-12T07:32:03.373Z,101702.09
2023-01-12T07:34:31.107Z,101701.56
2023-01-12T07:36:58.510Z,101705.66
2023-01-12T07:39:26.025Z,101716.69
2023-01-12T07:42:12.172Z,101720.34
2023-01-12T07:44:40.470Z,101725.03
2023-01-12T07:47:08.310Z,101728.91
2023-01-12T07:49:35.647Z,101729.34
2023-01-12T07:52:03.196Z,101741.78
2023-01-12T07:54:30.811Z,101738.22
2023-01-12T07:56:58.935Z,101746.88
2023-01-12T07:59:27.609Z,101745.00
2023-01-12T08:01:55.663Z,101753.88
2023-01-12T08:04:23.159Z,101752.69
2023-01-12T08:06:50.871Z,101745.75
2023-01-12T08:09:18.250Z,101749.84
2023-01-12T08:11:45.578Z,101753.34
2023-01-12T08:14:22.015Z,101756.41
2023-01-12T08:16:49.861Z,101758.03
2023-01-12T08:19:20.188Z,101759.38
2023-01-12T08:21:49.975Z,101773.88
2023-01-12T08:24:20.140Z,101768.84
2023-01-12T08:26:48.832Z,101772.88
2023-01-12T08:29:18.521Z,101783.44
2023-01-12T08:31:45.883Z,101789.72
2023-01-12T08:34:13.614Z,101788.88
2023-01-12T08:36:44.111Z,101799.75
2023-01-12T08:39:12.492Z,101808.25
2023-01-12T08:41:42.409Z,101809.94
2023-01-12T08:44:11.214Z,101817.66
2023-01-12T08:46:49.241Z,101804.84
2023-01-12T08:49:18.049Z,101798.97
2023-01-12T08:51:45.533Z,101806.59
2023-01-12T08:54:15.147Z,101814.97
2023-01-12T08:56:43.252Z,101823.38
2023-01-12T08:59:12.337Z,101844.78
2023-01-12T09:01:39.778Z,101856.25
2023-01-12T09:04:07.926Z,101853.44
2023-01-12T09:06:36.413Z,101861.47
2023-01-12T09:09:05.345Z,101862.47
2023-01-12T09:11:33.028Z,101849.44
2023-01-12T09:14:01.801Z,101865.75
2023-01-12T09:16:30.683Z,101865.16
2023-01-12T09:18:58.021Z,101862.00
2023-01-12T09:21:26.062Z,101865.75
2023-01-12T09:23:53.824Z,101864.25
2023-01-12T09:26:26.877Z,101863.75
2023-01-12T09:28:54.599Z,101857.19
2023-01-12T09:31:23.551Z,101853.81
2023-01-12T09:33:52.768Z,101860.91
2023-01-12T09:36:27.800Z,101861.72
2023-01-12T09:38:55.136Z,101878.09
2023-01-12T09:41:43.309Z,101882.56
2023-01-12T09:44:48.778Z,101883.09
2023-01-12T09:47:16.555Z,101879.59
2023-01-12T09:49:47.667Z,101874.06
2023-01-12T09:52:29.314Z,101875.78
2023-01-12T09:54:57.655Z,101867.22
2023-01-12T09:57:34.788Z,101873.16
2023-01-12T10:00:03.805Z,101868.44
2023-01-12T10:02:42.427Z,101871.94
2023-01-12T10:05:31.454Z,101876.38
2023-01-12T10:08:09.812Z,101865.09
2023-01-12T10:10:38.295Z,101857.53
2023-01-12T10:13:08.326Z,101858.81
2023-01-12T10:15:48.489Z,101857.31
2023-01-12T10:18:27.572Z,101853.34
2023-01-12T10:20:55.653Z,101850.41
2023-01-12T10:23:26.740Z,101859.28
2023-01-12T10:26:08.306Z,101849.13
2023-01-12T10:28:36.929Z,101853.91
2023-01-12T10:31:04.700Z,101857.28
2023-01-12T10:33:33.498Z,101847.97
2023-01-12T10:36:03.007Z,101832.16
2023-01-12T10:38:38.574Z,101825.41
2023-01-12T10:41:17.336Z,101829.16
2023-01-12T10:43:59.939Z,101827.09
2023-01-12T10:46:29.826Z,101827.59
2023-01-12T10:49:16.604Z,101831.34
2023-01-12T10:51:52.701Z,101834.91
2023-01-12T10:54:22.739Z,101843.16
2023-01-12T10:56:55.716Z,101837.56
2023-01-12T10:59:25.896Z,101841.28
2023-01-12T11:02:13.750Z,101844.28
2023-01-12T11:04:48.942Z,101849.75
2023-01-12T11:07:22.229Z,101844.25
2023-01-12T11:09:50.438Z,101847.41
2023-01-12T11:12:24.031Z,101837.69
2023-01-12T11:15:02.918Z,101844.22
2023-01-12T11:17:30.956Z,101828.09
2023-01-12T11:20:00.694Z,101823.25
2023-01-12T11:22:30.670Z,101817.03
2023-01-12T11:25:01.780Z,101799.78
2023-01-12T11:30:34.340Z,101802.25
2023-01-12T11:33:08.880Z,101803.16
2023-01-12T11:35:40.571Z,101801.78
2023-01-12T11:38:17.090Z,101807.88
2023-01-12T11:40:45.358Z,101804.16
2023-01-12T11:43:37.031Z,101803.69
2023-01-12T11:46:23.169Z,101806.22
2023-01-12T11:49:06.127Z,101808.50
2023-01-12T11:51:33.655Z,101814.44
2023-01-12T11:54:01.102Z,101810.97
2023-01-12T11:56:36.074Z,101796.44
2023-01-12T11:59:25.156Z,101785.03
2023-01-12T12:01:52.524Z,101784.19
2023-01-12T12:04:43.792Z,101785.97
2023-01-12T12:07:20.451Z,101787.03
2023-01-12T12:09:51.303Z,101787.09
2023-01-12T12:12:29.675Z,101774.56
2023-01-12T12:15:03.322Z,101768.41
2023-01-12T12:17:30.831Z,101760.69
2023-01-12T12:19:58.539Z,101761.31
2023-01-12T12:22:25.861Z,101759.06
2023-01-12T12:25:13.629Z,101755.78
2023-01-12T12:27:43.027Z,101745.09
2023-01-12T12:30:29.292Z,101753.25
2023-01-12T12:33:04.963Z,101750.88
2023-01-12T12:35:41.662Z,101753.81
2023-01-12T12:38:47.515Z,101743.31
2023-01-12T12:41:56.904Z,101747.34
2023-01-12T12:44:49.030Z,101733.59
2023-01-12T12:47:34.766Z,101739.88
2023-01-12T12:50:02.984Z,101726.22
2023-01-12T12:52:37.637Z,101719.75
2023-01-12T12:55:06.889Z,101715.81
2023-01-12T12:57:54.559Z,101706.88
2023-01-12T13:00:36.890Z,101715.34
2023-01-12T13:03:04.915Z,101702.56
2023-01-12T13:05:48.632Z,101703.03
2023-01-12T13:08:25.011Z,101700.13
2023-01-12T13:10:54.661Z,101703.72
2023-01-12T13:13:26.469Z,101697.28
2023-01-12T13:16:23.099Z,101695.84
2023-01-12T13:18:50.452Z,101689.84
2023-01-12T13:21:27.688Z,101683.72
2023-01-12T13:24:10.364Z,101675.50
2023-01-12T13:26:39.486Z,101663.41
2023-01-12T13:29:25.548Z,101655.09
2023-01-12T13:32:14.131Z,101662.28
2023-01-12T13:34:44.214Z,101658.66
2023-01-12T13:37:31.361Z,101658.19
2023-01-12T13:40:12.221Z,101655.09
2023-01-12T13:42:58.026Z,101660.13
2023-01-12T13:45:25.487Z,101664.06
2023-01-12T13:47:53.608Z,101668.75
2023-01-12T13:50:22.735Z,101661.63
2023-01-12T13:52:58.148Z,101654.53
2023-01-12T13:55:28.117Z,101652.84
2023-01-12T13:57:56.908Z,101652.66
2023-01-12T14:00:24.605Z,101647.28
2023-01-12T14:02:52.825Z,101643.41
2023-01-12T14:05:36.809Z,101640.03
2023-01-12T14:08:10.187Z,101642.34
2023-01-12T14:10:43.731Z,101638.44
2023-01-12T14:13:11.039Z,101638.84
2023-01-12T14:16:01.200Z,101638.50
2023-01-12T14:18:40.599Z,101640.50
2023-01-12T14:21:22.670Z,101645.94
2023-01-12T14:23:50.751Z,101649.72
2023-01-12T14:26:23.952Z,101654.28
2023-01-12T14:28:52.130Z,101651.09
2023-01-12T14:31:27.677Z,101642.59
2023-01-12T14:33:57.185Z,101645.78
2023-01-12T14:36:30.319Z,101654.47
2023-01-12T14:38:59.824Z,101645.53
2023-01-12T14:41:46.727Z,101648.19
2023-01-12T14:44:43.568Z,101643.88
2023-01-12T14:47:22.705Z,101639.25
2023-01-12T14:49:50.290Z,101637.69
2023-01-12T14:52:26.279Z,101637.72
2023-01-12T14:54:54.087Z,101640.81
2023-01-12T14:57:24.272Z,101639.28
2023-01-12T14:59:52.441Z,101628.03
2023-01-12T15:02:28.778Z,101633.16
2023-01-12T15:05:00.958Z,101636.34
2023-01-12T15:07:51.949Z,101630.00
2023-01-12T15:10:19.359Z,101632.81
2023-01-12T15:12:53.799Z,101632.22
2023-01-12T15:15:22.823Z,101639.00
2023-01-12T15:18:10.010Z,101627.94
2023-01-12T15:21:03.410Z,101629.03
2023-01-12T15:23:54.380Z,101631.09
2023-01-12T15:26:22.834Z,101627.75
2023-01-12T15:28:50.462Z,101631.56
2023-01-12T15:31:30.236Z,101626.50
2023-01-12T15:33:58.413Z,101631.25
2023-01-12T15:36:26.581Z,101624.13
2023-01-12T15:38:55.351Z,101623.63
2023-01-12T15:41:46.437Z,101614.72
2023-01-12T15:44:16.084Z,101615.13
2023-01-12T15:46:44.005Z,101613.06
2023-01-12T15:49:13.454Z,101617.72
2023-01-12T15:51:41.860Z,101614.06
2023-01-12T15:54:12.849Z,101615.47
2023-01-12T15:56:43.630Z,101622.81
2023-01-12T15:59:11.723Z,101622.13
2023-01-12T16:01:44.663Z,101620.66
2023-01-12T16:04:47.048Z,101620.59
2023-01-12T16:07:14.563Z,101632.28
2023-01-12T16:09:45.853Z,101623.72
2023-01-12T16:12:14.767Z,101634.72
2023-01-12T16:14:42.700Z,101633.81
2023-01-12T16:17:11.304Z,101644.25
2023-01-12T16:19:42.122Z,101636.19
2023-01-12T16:22:21.243Z,101634.16
2023-01-12T16:24:49.786Z,101636.44
2023-01-12T16:27:18.502Z,101632.25
2023-01-12T16:29:46.336Z,101637.00
2023-01-12T16:32:14.026Z,101640.47
2023-01-12T16:34:41.581Z,101638.56
2023-01-12T16:37:14.446Z,101632.75
2023-01-12T16:39:42.484Z,101631.66
2023-01-12T16:42:10.858Z,101635.31
2023-01-12T16:44:39.232Z,101631.47
2023-01-12T16:47:17.451Z,101633.44
2023-01-12T16:49:47.814Z,101624.81
2023-01-12T16:52:16.680Z,101619.72
2023-01-12T16:54:44.159Z,101636.19
2023-01-12T16:57:12.329Z,101630.06
2023-01-12T16:59:48.246Z,101629.59
2023-01-12T17:02:23.923Z,101630.53
2023-01-12T17:04:55.651Z,101628.91
2023-01-12T17:07:25.452Z,101626.81
2023-01-12T17:09:52.903Z,101630.81
2023-01-12T17:12:21.411Z,101626.69
2023-01-12T17:14:50.236Z,101630.28
2023-01-12T17:17:18.881Z,101640.56
2023-01-12T17:19:53.469Z,101643.38
2023-01-12T17:22:25.451Z,101649.84
2023-01-12T17:24:53.562Z,101650.22
2023-01-12T17:27:20.917Z,101641.88
2023-01-12T17:29:49.641Z,101650.97
2023-01-12T17:32:17.883Z,101657.19
2023-01-12T17:34:48.433Z,101655.69
2023-01-12T17:37:19.283Z,101657.63
2023-01-12T17:39:53.025Z,101661.41
2023-01-12T17:42:42.282Z,101653.25
2023-01-12T17:45:09.930Z,101647.94
2023-01-12T17:47:37.947Z,101650.09
2023-01-12T17:50:05.742Z,101655.50
2023-01-12T17:52:33.726Z,101665.03
2023-01-12T17:55:01.440Z,101664.28
2023-01-12T17:57:29.931Z,101659.09
2023-01-12T17:59:57.453Z,101654.94
2023-01-12T18:02:25.438Z,101647.31
2023-01-12T18:04:52.884Z,101652.69
2023-01-12T18:07:20.594Z,101648.44
2023-01-12T18:09:48.107Z,101640.75
2023-01-12T18:12:16.545Z,101646.19
2023-01-12T18:14:48.423Z,101646.97
2023-01-12T18:17:15.793Z,101661.66
2023-01-12T18:19:47.688Z,101662.63
2023-01-12T18:22:15.166Z,101657.28
2023-01-12T18:24:43.603Z,101658.03
2023-01-12T18:27:14.687Z,101654.19
2023-01-12T18:29:42.742Z,101650.00
2023-01-12T18:32:10.671Z,101654.88
2023-01-12T18:34:41.087Z,101652.63
2023-01-12T18:37:08.601Z,101656.66
2023-01-12T18:39:36.289Z,101665.94
2023-01-12T18:42:22.468Z,101657.47
2023-01-12T18:44:50.433Z,101653.19
2023-01-12T18:47:40.128Z,101658.41
2023-01-12T18:50:27.325Z,101656.09
2023-01-12T18:53:13.472Z,101651.25
2023-01-12T18:55:41.479Z,101657.03
2023-01-12T18:58:16.683Z,101645.69
2023-01-12T19:00:44.632Z,101637.00
2023-01-12T19:03:16.075Z,101647.41
2023-01-12T19:05:55.626Z,101651.59
2023-01-12T19:09:01.363Z,101643.53
2023-01-12T19:11:29.161Z,101633.84
2023-01-12T19:14:15.424Z,101626.06
2023-01-12T19:17:05.515Z,101631.28
2023-01-12T19:19:34.946Z,101618.59
2023-01-12T19:22:22.295Z,101624.66
2023-01-12T19:25:09.086Z,101626.06
2023-01-12T19:28:02.527Z,101632.09
2023-01-12T19:30:35.819Z,101631.19
2023-01-12T19:33:12.985Z,101623.50
2023-01-12T19:35:41.886Z,101617.09
2023-01-12T19:38:09.914Z,101620.97
2023-01-12T19:40:45.434Z,101618.91
2023-01-12T19:43:20.600Z,101616.94
2023-01-12T19:45:49.787Z,101612.34
2023-01-12T19:48:17.754Z,101612.66
2023-01-12T19:50:45.597Z,101609.94
2023-01-12T19:53:18.596Z,101609.31
2023-01-12T19:55:46.599Z,101608.25
2023-01-12T19:58:15.046Z,101605.94
2023-01-12T20:00:45.079Z,101604.00
2023-01-12T20:03:13.912Z,101602.03
2023-01-12T20:05:44.674Z,101594.19
2023-01-12T20:08:15.006Z,101597.66
2023-01-12T20:10:43.281Z,101600.53
2023-01-12T20:13:12.176Z,101591.41
2023-01-12T20:15:40.969Z,101591.00
2023-01-12T20:18:08.874Z,101580.44
2023-01-12T20:20:36.821Z,101596.09
2023-01-12T20:23:04.384Z,101596.97
2023-01-12T20:25:31.689Z,101598.28
2023-01-12T20:27:59.096Z,101599.25
2023-01-12T20:30:37.360Z,101596.69
2023-01-12T20:33:06.248Z,101592.69
2023-01-12T20:35:38.566Z,101587.47
2023-01-12T20:38:08.655Z,101586.72
2023-01-12T20:40:38.539Z,101589.44
2023-01-12T20:43:06.291Z,101586.09
2023-01-12T20:45:34.126Z,101586.47
2023-01-12T20:48:04.648Z,101572.97
2023-01-12T20:50:34.753Z,101581.66
2023-01-12T20:53:02.316Z,101576.56
2023-01-12T20:55:30.147Z,101578.25
2023-01-12T20:57:58.750Z,101580.88
2023-01-12T21:00:28.824Z,101578.06
2023-01-12T21:02:57.091Z,101573.63
2023-01-12T21:05:25.276Z,101562.81
2023-01-12T21:08:00.034Z,101572.19
2023-01-12T21:10:34.613Z,101571.13
2023-01-12T21:13:05.409Z,101570.94
2023-01-12T21:15:36.607Z,101568.22
2023-01-12T21:18:04.266Z,101565.63
2023-01-12T21:20:31.760Z,101565.47
2023-01-12T21:23:00.182Z,101567.22
2023-01-12T21:25:29.020Z,101576.22
2023-01-12T21:27:57.494Z,101567.28
2023-01-12T21:30:25.598Z,101566.56
2023-01-12T21:32:55.069Z,101560.09
2023-01-12T21:35:24.052Z,101555.50
2023-01-12T21:37:51.681Z,101561.56
2023-01-12T21:40:20.854Z,101566.78
2023-01-12T21:43:06.747Z,101564.81
2023-01-12T21:45:40.092Z,101568.28
2023-01-12T21:48:08.911Z,101581.03
2023-01-12T21:50:36.573Z,101569.03
2023-01-12T21:53:04.856Z,101574.06
2023-01-12T21:55:33.195Z,101569.19
2023-01-12T21:58:02.191Z,101570.53
2023-01-12T22:00:30.345Z,101574.94
2023-01-12T22:02:57.834Z,101580.31
2023-01-12T22:05:25.967Z,101579.91
2023-01-12T22:07:55.460Z,101580.88
2023-01-12T22:10:30.293Z,101580.41
2023-01-12T22:12:59.528Z,101583.44
2023-01-12T22:15:28.358Z,101578.84
2023-01-12T22:17:57.302Z,101566.16
2023-01-12T22:20:25.387Z,101584.28
2023-01-12T22:22:57.260Z,101578.81
2023-01-12T22:25:25.443Z,101574.38
2023-01-12T22:28:01.362Z,101581.19
2023-01-12T22:30:29.374Z,101575.13
2023-01-12T22:32:57.658Z,101572.00
2023-01-12T22:35:26.249Z,101574.25
2023-01-12T22:37:54.801Z,101571.38
2023-01-12T22:40:30.738Z,101569.53
2023-01-12T22:43:17.517Z,101572.94
2023-01-12T22:45:45.675Z,101562.97
2023-01-12T22:48:28.087Z,101566.06
2023-01-12T22:51:00.178Z,101557.84
2023-01-12T22:53:27.774Z,101565.50
2023-01-12T22:55:58.879Z,101559.94
2023-01-12T22:58:26.698Z,101565.94
2023-01-12T23:01:17.880Z,101555.59
2023-01-12T23:03:47.951Z,101554.78
2023-01-12T23:06:16.505Z,101549.22
2023-01-12T23:08:44.670Z,101547.16
2023-01-12T23:11:14.076Z,101533.16
2023-01-12T23:13:42.854Z,101536.03
2023-01-12T23:16:15.366Z,101529.69
2023-01-12T23:18:44.165Z,101527.81
2023-01-12T23:21:16.374Z,101519.31
2023-01-12T23:23:45.680Z,101517.50
2023-01-12T23:26:20.647Z,101519.53
2023-01-12T23:28:50.194Z,101512.56
2023-01-12T23:31:22.373Z,101512.03
2023-01-12T23:33:50.355Z,101504.50
2023-01-12T23:36:22.640Z,101513.63
2023-01-12T23:39:00.796Z,101513.03
2023-01-12T23:41:29.334Z,101502.84
2023-01-12T23:44:01.304Z,101495.94
2023-01-12T23:46:30.573Z,101502.00
2023-01-12T23:48:58.619Z,101491.56
2023-01-12T23:51:28.136Z,101496.31
2023-01-12T23:53:59.239Z,101495.75
2023-01-12T23:56:27.911Z,101495.41
2023-01-12T23:58:58.081Z,101486.75
